Time;durP1;ratioP1;P1;durP2;ratioP2;P2;SDS_P1;SDS_P2;PMS_P1;PMS_P2;Temp;Humidity;BMP_temperature;BMP_pressure;BME280_temperature;BME280_humidity;BME280_pressure;Samples;Min_cycle;Max_cycle;Signal;HPM_P1;HPM_P2
2023/08/17 00:00:08;;;;;;;8.85;5.32;;;;;;;23.00;77.90;94712.25;5089645;28;20190;-45
2023/08/17 00:02:35;;;;;;;12.45;5.05;;;;;;;22.96;78.54;94720.72;5089550;28;20197;-44
2023/08/17 00:05:03;;;;;;;10.82;5.97;;;;;;;22.92;79.42;94724.75;5089811;28;20205;-45
2023/08/17 00:07:30;;;;;;;7.00;5.28;;;;;;;22.84;80.74;94719.78;5089911;28;20194;-45
2023/08/17 00:09:56;;;;;;;6.97;4.93;;;;;;;22.81;81.42;94726.22;5089824;28;20327;-44
2023/08/17 00:12:23;;;;;;;7.38;5.35;;;;;;;22.76;82.13;94728.69;5089572;28;20197;-42
2023/08/17 00:14:50;;;;;;;5.57;4.90;;;;;;;22.71;82.58;94718.06;5089428;28;20289;-43
2023/08/17 00:17:17;;;;;;;10.95;4.80;;;;;;;22.70;83.01;94726.91;5089818;28;20202;-43
2023/08/17 00:19:43;;;;;;;9.27;5.22;;;;;;;22.58;83.02;94707.75;5089768;28;20189;-43
2023/08/17 00:22:12;;;;;;;6.13;5.50;;;;;;;22.61;83.84;94725.56;5089487;28;20194;-43
2023/08/17 00:24:40;;;;;;;9.15;5.75;;;;;;;22.64;83.56;94722.56;5089834;28;20182;-45
2023/08/17 00:27:07;;;;;;;5.57;4.88;;;;;;;22.62;83.67;94727.97;5089273;28;20640;-44
2023/08/17 00:29:35;;;;;;;6.70;4.72;;;;;;;22.58;83.90;94728.59;5089370;28;20190;-45
2023/08/17 00:32:01;;;;;;;7.10;5.05;;;;;;;22.54;84.32;94728.25;5089154;28;20228;-44
2023/08/17 00:34:28;;;;;;;5.35;4.53;;;;;;;22.05;84.07;94652.31;5089172;28;20284;-44
2023/08/17 00:36:55;;;;;;;6.22;4.97;;;;;;;22.43;84.76;94723.69;5089356;28;20584;-43
2023/08/17 00:39:23;;;;;;;9.93;5.50;;;;;;;22.43;84.33;94721.88;5089100;28;20745;-46
2023/08/17 00:41:50;;;;;;;7.43;4.90;;;;;;;22.39;84.17;94717.28;5089696;28;20185;-44
2023/08/17 00:44:17;;;;;;;7.85;5.20;;;;;;;22.38;84.04;94718.31;5088949;28;20224;-44
2023/08/17 00:46:44;;;;;;;9.38;5.13;;;;;;;22.35;83.96;94713.50;5089298;28;20192;-43
2023/08/17 00:49:11;;;;;;;8.80;5.03;;;;;;;22.36;83.38;94715.91;5090378;28;20178;-43
2023/08/17 00:51:40;;;;;;;11.93;5.18;;;;;;;22.32;83.22;94717.31;5093198;28;20676;-42
2023/08/17 00:54:07;;;;;;;7.20;5.13;;;;;;;22.31;83.12;94718.34;5093189;28;20252;-46
2023/08/17 00:56:35;;;;;;;10.00;4.72;;;;;;;22.25;82.74;94711.38;5093319;28;20254;-43
2023/08/17 00:59:02;;;;;;;5.28;4.80;;;;;;;22.25;82.33;94711.38;5093273;28;20209;-44
2023/08/17 01:01:29;;;;;;;6.35;3.95;;;;;;;22.21;81.90;94712.78;5093405;28;20304;-43
2023/08/17 01:03:55;;;;;;;5.28;4.55;;;;;;;22.19;81.62;94712.19;5093039;28;20189;-43
2023/08/17 01:06:22;;;;;;;9.52;4.68;;;;;;;22.13;81.38;94702.63;5093100;28;20204;-44
2023/08/17 01:08:49;;;;;;;4.45;3.97;;;;;;;22.10;80.79;94714.22;5093243;28;20190;-44
2023/08/17 01:11:28;;;;;;;6.40;3.95;;;;;;;22.06;79.65;94710.41;5093151;28;20210;-44
2023/08/17 01:14:00;;;;;;;7.45;3.95;;;;;;;22.02;78.68;94711.84;5093030;28;20268;-44
2023/08/17 01:16:30;;;;;;;6.45;3.85;;;;;;;22.05;78.35;94712.22;5092898;28;20634;-44
2023/08/17 01:18:59;;;;;;;9.45;4.93;;;;;;;22.00;77.49;94712.06;5092892;28;20610;-43
2023/08/17 01:21:36;;;;;;;7.22;4.15;;;;;;;21.97;76.65;94707.25;5092980;28;20579;-42
2023/08/17 01:24:06;;;;;;;4.40;3.60;;;;;;;21.96;75.66;94710.09;5092798;28;20219;-43
2023/08/17 01:26:33;;;;;;;5.90;3.50;;;;;;;22.04;75.39;94699.44;5092749;28;20295;-44
2023/08/17 01:29:00;;;;;;;6.63;3.97;;;;;;;22.06;75.07;94710.41;5092773;28;20197;-43
2023/08/17 01:31:31;;;;;;;5.93;3.55;;;;;;;21.56;74.62;94634.78;5092466;28;20237;-43
2023/08/17 01:34:05;;;;;;;4.13;3.58;;;;;;;22.01;74.14;94703.22;5092682;28;20189;-44
2023/08/17 01:36:34;;;;;;;7.43;3.45;;;;;;;21.96;74.31;94691.84;5092787;28;20577;-44
2023/08/17 01:39:03;;;;;;;3.85;3.13;;;;;;;21.92;73.86;94694.06;5092939;28;20185;-43
2023/08/17 01:41:31;;;;;;;6.72;3.63;;;;;;;21.95;73.53;94703.28;5092989;28;20186;-42
2023/08/17 01:44:00;;;;;;;4.25;3.60;;;;;;;21.96;73.08;94700.47;5092403;28;20280;-43
2023/08/17 01:46:31;;;;;;;6.80;3.30;;;;;;;21.94;73.02;94704.28;5092246;28;20201;-42
2023/08/17 01:48:58;;;;;;;5.10;3.50;;;;;;;21.95;73.62;94698.06;5092608;28;20189;-44
2023/08/17 01:51:25;;;;;;;3.95;3.22;;;;;;;21.94;73.39;94705.09;5092424;28;20213;-44
2023/08/17 01:53:52;;;;;;;6.10;3.47;;;;;;;21.95;73.52;94706.69;5092610;28;20277;-44
2023/08/17 01:56:19;;;;;;;6.78;3.60;;;;;;;21.90;73.44;94710.91;5091964;28;20661;-45
2023/08/17 01:58:47;;;;;;;8.13;3.08;;;;;;;21.87;73.36;94701.72;5092292;28;20212;-43
2023/08/17 02:01:14;;;;;;;4.93;3.97;;;;;;;21.87;73.11;94700.91;5090884;28;20637;-43
2023/08/17 02:03:41;;;;;;;7.55;3.63;;;;;;;21.89;72.93;94701.50;5092055;28;20190;-42
2023/08/17 02:06:08;;;;;;;4.90;3.70;;;;;;;21.88;72.95;94692.88;5091695;28;20208;-42
2023/08/17 02:08:35;;;;;;;6.82;3.67;;;;;;;21.83;73.19;94697.13;5092234;28;20276;-41
2023/08/17 02:11:01;;;;;;;4.03;3.55;;;;;;;21.72;73.13;94677.75;5092105;28;20301;-44
2023/08/17 02:13:28;;;;;;;5.72;3.53;;;;;;;21.86;73.34;94701.94;5091908;28;20201;-44
2023/08/17 02:15:56;;;;;;;4.55;3.20;;;;;;;21.76;73.66;94687.56;5091960;28;20198;-42
2023/08/17 02:18:23;;;;;;;4.28;3.30;;;;;;;21.78;73.69;94695.94;5092084;28;20189;-44
2023/08/17 02:20:50;;;;;;;5.78;3.22;;;;;;;21.82;73.72;94701.53;5091530;28;20200;-44
2023/08/17 02:23:17;;;;;;;3.22;2.92;;;;;;;21.76;73.71;94690.16;5091941;28;20235;-44
2023/08/17 02:25:43;;;;;;;11.32;3.55;;;;;;;21.73;73.88;94676.75;5091918;28;20189;-44
2023/08/17 02:28:10;;;;;;;4.60;3.25;;;;;;;21.81;73.71;94697.34;5091527;28;20193;-44
2023/08/17 02:30:37;;;;;;;6.35;3.15;;;;;;;21.77;73.89;94702.16;5091576;28;20229;-44
2023/08/17 02:33:05;;;;;;;14.70;4.05;;;;;;;21.77;74.21;94694.34;5091368;28;20220;-45
2023/08/17 02:35:32;;;;;;;4.55;3.22;;;;;;;21.74;74.48;94699.16;5091330;28;20258;-44
2023/08/17 02:37:59;;;;;;;9.43;3.65;;;;;;;21.60;74.93;94674.19;5091824;28;20182;-43
2023/08/17 02:40:26;;;;;;;3.40;3.10;;;;;;;21.69;75.19;94691.97;5091631;28;20186;-43
2023/08/17 02:42:52;;;;;;;5.28;3.50;;;;;;;21.70;75.15;94688.34;5091492;28;20194;-45
2023/08/17 02:45:19;;;;;;;4.53;3.45;;;;;;;21.67;75.22;94695.78;5091427;28;20633;-44
2023/08/17 02:47:46;;;;;;;11.25;4.05;;;;;;;21.63;75.42;94690.22;5091000;28;20194;-43
2023/08/17 02:50:14;;;;;;;4.70;3.25;;;;;;;21.64;75.50;94689.19;5091275;28;20652;-44
2023/08/17 02:52:41;;;;;;;4.40;3.75;;;;;;;21.60;75.34;94684.59;5091200;28;20213;-43
2023/08/17 02:55:08;;;;;;;11.00;3.83;;;;;;;21.60;75.34;94692.41;5091250;28;20193;-44
2023/08/17 02:57:35;;;;;;;4.95;3.95;;;;;;;21.60;75.37;94692.41;5090717;28;20190;-42
2023/08/17 03:00:02;;;;;;;5.43;3.88;;;;;;;21.58;75.52;94682.19;5091450;28;20189;-42
2023/08/17 03:02:28;;;;;;;5.45;3.30;;;;;;;21.57;75.39;94688.41;5090930;28;20618;-44
2023/08/17 03:04:55;;;;;;;5.45;3.78;;;;;;;21.53;75.55;94689.81;5090627;28;20243;-43
2023/08/17 03:07:23;;;;;;;4.97;3.17;;;;;;;21.52;75.79;94689.03;5090883;28;20251;-43
2023/08/17 03:09:50;;;;;;;4.32;3.28;;;;;;;21.54;75.96;94688.81;5090531;28;20586;-42
2023/08/17 03:12:17;;;;;;;5.18;3.58;;;;;;;21.53;76.16;94695.03;5090692;28;20298;-41
2023/08/17 03:14:43;;;;;;;9.35;3.50;;;;;;;21.51;76.28;94687.44;5090556;28;20201;-44
2023/08/17 03:17:10;;;;;;;7.55;3.80;;;;;;;21.50;76.32;94698.84;5090777;28;20555;-42
2023/08/17 03:19:37;;;;;;;6.05;3.83;;;;;;;21.47;76.67;94690.66;5090429;28;20204;-42
2023/08/17 03:22:04;;;;;;;13.02;3.65;;;;;;;21.44;76.66;94685.84;5090751;28;20190;-43
2023/08/17 03:24:32;;;;;;;6.22;3.80;;;;;;;21.44;76.82;94691.06;5090655;28;20193;-43
2023/08/17 03:26:59;;;;;;;4.85;3.47;;;;;;;21.41;76.83;94694.84;5090851;28;20197;-42
2023/08/17 03:29:26;;;;;;;7.40;3.70;;;;;;;21.46;77.01;94692.47;5090508;28;20197;-44
2023/08/17 03:31:53;;;;;;;5.65;4.13;;;;;;;21.49;76.96;94696.44;5090369;28;20328;-44
2023/08/17 03:34:20;;;;;;;4.18;3.42;;;;;;;;;;5090358;28;20533;-44
2023/08/17 03:36:47;;;;;;;3.75;3.17;;;;;;;21.40;76.83;94692.47;5090315;28;20193;-44
2023/08/17 03:39:13;;;;;;;4.35;3.10;;;;;;;21.38;76.55;94691.88;5090563;28;20194;-44
2023/08/17 03:41:42;;;;;;;8.65;3.53;;;;;;;21.41;76.74;94700.06;5090469;28;20181;-43
2023/08/17 03:44:09;;;;;;;4.07;3.15;;;;;;;21.44;76.58;94701.47;5090575;28;20259;-42
2023/08/17 03:46:36;;;;;;;8.65;3.80;;;;;;;21.41;76.67;94692.25;5091576;28;20189;-44
2023/08/17 03:49:03;;;;;;;6.72;3.67;;;;;;;21.46;76.48;94702.88;5090165;28;20702;-45
2023/08/17 03:51:29;;;;;;;6.68;4.20;;;;;;;21.45;77.05;94709.06;5089910;28;20237;-44
2023/08/17 03:53:56;;;;;;;10.85;4.03;;;;;;;21.41;76.94;94700.06;5089940;28;20831;-43
2023/08/17 03:56:23;;;;;;;3.50;3.20;;;;;;;21.41;76.78;94712.28;5089738;28;20193;-43
2023/08/17 03:58:53;;;;;;;7.78;3.83;;;;;;;21.41;76.48;94713.06;5089885;28;20213;-42
2023/08/17 04:01:20;;;;;;;7.40;3.55;;;;;;;21.38;76.40;94717.91;5090036;28;20193;-44
2023/08/17 04:03:47;;;;;;;6.75;4.07;;;;;;;21.37;76.44;94724.09;5089835;28;20189;-44
2023/08/17 04:06:13;;;;;;;7.88;3.95;;;;;;;21.33;76.60;94723.72;5089653;28;20186;-43
2023/08/17 04:08:40;;;;;;;10.77;4.10;;;;;;;21.32;76.66;94726.50;5089724;28;20633;-42
2023/08/17 04:11:07;;;;;;;9.88;3.85;;;;;;;20.96;76.51;94681.72;5089692;28;20274;-45
2023/08/17 04:13:34;;;;;;;4.20;3.80;;;;;;;21.27;76.23;94730.47;5089346;28;20197;-43
2023/08/17 04:16:02;;;;;;;5.68;3.50;;;;;;;21.28;75.96;94726.06;5089347;28;20189;-44
2023/08/17 04:18:29;;;;;;;7.93;3.53;;;;;;;21.30;74.61;94722.28;5089391;28;20626;-43
2023/08/17 04:20:55;;;;;;;12.43;4.97;;;;;;;21.39;75.47;94716.88;5089494;28;20262;-44
2023/08/17 04:23:22;;;;;;;5.75;4.10;;;;;;;21.39;75.96;94724.69;5089058;28;20815;-44
2023/08/17 04:25:49;;;;;;;12.50;4.70;;;;;;;21.29;75.99;94699.09;5089275;28;20200;-43
2023/08/17 04:28:16;;;;;;;10.80;4.25;;;;;;;21.15;76.33;94693.06;5089071;28;20202;-45
2023/08/17 04:30:43;;;;;;;11.60;4.00;;;;;;;21.35;76.42;94719.09;5089336;28;20248;-43
2023/08/17 04:33:12;;;;;;;8.05;4.65;;;;;;;21.40;76.71;94710.69;5088985;28;20604;-44
2023/08/17 04:35:39;;;;;;;9.85;4.05;;;;;;;21.44;76.43;94723.06;5089448;28;20656;-43
2023/08/17 04:38:06;;;;;;;11.60;4.18;;;;;;;21.52;76.60;94724.66;5089163;28;20259;-43
2023/08/17 04:40:34;;;;;;;11.90;4.55;;;;;;;21.64;76.12;94720.44;5089559;28;20247;-44
2023/08/17 04:43:00;;;;;;;12.18;3.92;;;;;;;21.80;74.99;94719.16;5089014;28;20574;-44
2023/08/17 04:45:27;;;;;;;7.47;4.38;;;;;;;21.99;74.06;94720.88;5089225;28;20204;-46
2023/08/17 04:47:54;;;;;;;5.55;3.80;;;;;;;22.21;73.42;94718.00;5089099;28;20693;-43
2023/08/17 04:50:22;;;;;;;10.15;4.10;;;;;;;22.37;72.84;94714.91;5088670;28;20196;-48
2023/08/17 04:52:49;;;;;;;9.15;4.45;;;;;;;22.60;72.08;94716.16;5089228;28;20224;-44
2023/08/17 04:55:16;;;;;;;12.68;3.90;;;;;;;22.74;71.46;94699.41;5089463;28;20227;-46
2023/08/17 04:57:43;;;;;;;11.48;4.13;;;;;;;23.15;69.94;94717.16;5089145;28;20636;-45
2023/08/17 05:00:12;;;;;;;6.03;3.90;;;;;;;23.36;69.92;94717.75;5089112;28;20194;-44
2023/08/17 05:02:39;;;;;;;10.18;4.90;;;;;;;23.73;69.17;94722.00;5089227;28;20327;-44
2023/08/17 05:05:07;;;;;;;13.38;4.50;;;;;;;24.28;67.41;94723.75;5088907;28;20194;-46
2023/08/17 05:07:35;;;;;;;13.88;5.55;;;;;;;24.65;66.10;94716.59;5089111;28;20194;-43
2023/08/17 05:10:03;;;;;;;8.18;4.70;;;;;;;24.73;64.84;94718.09;5089044;28;20193;-44
2023/08/17 05:12:29;;;;;;;10.23;5.40;;;;;;;24.84;64.83;94719.13;5089153;28;20289;-42
2023/08/17 05:14:56;;;;;;;8.77;5.00;;;;;;;25.08;63.85;94718.16;5088615;28;20194;-43
2023/08/17 05:17:23;;;;;;;8.18;4.65;;;;;;;25.28;62.98;94720.44;5089085;28;20189;-41
2023/08/17 05:19:50;;;;;;;10.57;5.30;;;;;;;25.48;62.96;94720.88;5088904;28;20663;-45
2023/08/17 05:22:16;;;;;;;9.48;5.22;;;;;;;25.82;62.47;94722.88;5089315;28;20190;-45
2023/08/17 05:24:45;;;;;;;5.47;4.75;;;;;;;26.13;61.40;94717.22;5089314;28;20197;-45
2023/08/17 05:27:11;;;;;;;7.00;4.78;;;;;;;26.43;59.90;94722.22;5089111;28;20186;-44
2023/08/17 05:29:38;;;;;;;10.52;5.00;;;;;;;26.69;59.21;94725.31;5089203;28;20190;-44
2023/08/17 05:32:06;;;;;;;10.38;4.35;;;;;;;26.87;56.93;94730.34;5088576;28;20711;-44
2023/08/17 05:34:33;;;;;;;5.72;4.15;;;;;;;27.05;56.75;94726.69;5089626;28;20273;-46
2023/08/17 05:36:59;;;;;;;9.18;4.13;;;;;;;27.41;56.01;94729.84;5092968;28;20190;-44
2023/08/17 05:39:27;;;;;;;9.60;4.07;;;;;;;27.75;54.14;94730.59;5095038;28;20208;-44
2023/08/17 05:41:55;;;;;;;7.03;4.28;;;;;;;28.06;54.29;94730.94;5093359;28;20201;-44
2023/08/17 05:44:22;;;;;;;7.22;4.30;;;;;;;28.41;52.77;94738.47;5092747;28;20603;-44
2023/08/17 05:46:49;;;;;;;6.70;3.78;;;;;;;28.62;51.99;94739.47;5092501;28;20220;-44
2023/08/17 05:49:15;;;;;;;6.75;4.15;;;;;;;28.92;50.53;94734.44;5092871;28;20613;-44
2023/08/17 05:51:42;;;;;;;10.43;4.03;;;;;;;29.13;50.37;94738.06;5092674;28;20221;-46
2023/08/17 05:54:09;;;;;;;9.52;3.78;;;;;;;29.42;48.95;94732.47;5092805;28;20194;-44
2023/08/17 05:56:36;;;;;;;6.85;3.38;;;;;;;29.54;47.59;94733.09;5092717;28;20232;-44
2023/08/17 05:59:04;;;;;;;5.93;3.55;;;;;;;29.70;47.72;94739.25;5092862;28;20186;-45
2023/08/17 06:01:31;;;;;;;4.93;3.55;;;;;;;29.97;46.80;94747.03;5092391;28;20189;-44
2023/08/17 06:03:58;;;;;;;3.75;2.83;;;;;;;30.15;47.00;94733.41;5092042;28;20190;-43
2023/08/17 06:06:26;;;;;;;3.85;3.25;;;;;;;30.06;45.94;94687.44;5092340;28;20189;-43
2023/08/17 06:08:52;;;;;;;6.45;3.22;;;;;;;30.64;45.06;94743.53;5092080;28;20190;-45
2023/08/17 06:11:19;;;;;;;6.90;3.38;;;;;;;30.91;44.27;94748.59;5092361;28;20227;-45
2023/08/17 06:13:46;;;;;;;4.57;3.38;;;;;;;31.02;44.12;94745.97;5091785;28;20220;-43
2023/08/17 06:16:14;;;;;;;3.78;2.90;;;;;;;31.21;43.72;94752.28;5092266;28;20194;-44
2023/08/17 06:18:41;;;;;;;6.22;3.25;;;;;;;31.21;44.16;94739.88;5091691;28;20677;-43
2023/08/17 06:21:08;;;;;;;5.68;3.42;;;;;;;31.31;43.44;94743.63;5092469;28;20188;-45
2023/08/17 06:23:35;;;;;;;5.68;3.42;;;;;;;31.37;43.90;94743.34;5091906;28;20211;-45
2023/08/17 06:26:01;;;;;;;6.28;3.40;;;;;;;31.47;44.01;94742.50;5092267;28;20185;-46
2023/08/17 06:28:28;;;;;;;7.55;3.88;;;;;;;31.55;44.87;94739.31;5091666;28;20213;-46
2023/08/17 06:30:55;;;;;;;6.78;4.03;;;;;;;31.79;44.96;94739.53;5091560;28;20712;-45
2023/08/17 06:33:23;;;;;;;5.70;3.70;;;;;;;31.96;45.02;94740.03;5091847;28;20275;-44
2023/08/17 06:35:50;;;;;;;4.75;3.78;;;;;;;32.19;44.15;94748.41;5091755;28;20568;-46
2023/08/17 06:38:17;;;;;;;6.03;3.67;;;;;;;32.39;44.18;94755.50;5092156;28;20190;-45
2023/08/17 06:40:44;;;;;;;6.07;3.90;;;;;;;32.33;43.83;94745.94;5091565;28;20193;-44
2023/08/17 06:43:11;;;;;;;9.30;4.40;;;;;;;32.47;43.59;94749.59;5091623;28;20193;-46
2023/08/17 06:45:37;;;;;;;5.85;3.85;;;;;;;32.59;44.08;94760.66;5091592;28;20204;-44
2023/08/17 06:48:04;;;;;;;3.47;3.10;;;;;;;32.61;43.81;94760.41;5091098;28;20190;-44
2023/08/17 06:50:33;;;;;;;5.13;3.80;;;;;;;32.56;43.62;94753.28;5091497;28;20193;-46
2023/08/17 06:52:59;;;;;;;6.65;3.90;;;;;;;32.62;43.41;94752.16;5091384;28;20585;-45
2023/08/17 06:55:26;;;;;;;5.05;4.05;;;;;;;32.61;43.40;94757.75;5091183;28;20269;-44
2023/08/17 06:57:54;;;;;;;8.80;4.50;;;;;;;32.52;43.61;94752.25;5091337;28;20301;-44
2023/08/17 07:00:22;;;;;;;5.68;4.13;;;;;;;32.36;43.28;94730.31;5091415;28;20186;-45
2023/08/17 07:02:49;;;;;;;3.88;3.13;;;;;;;32.46;42.49;94745.38;5091398;28;20636;-43
2023/08/17 07:05:16;;;;;;;6.22;3.70;;;;;;;32.12;42.86;94751.34;5091137;28;20194;-45
2023/08/17 07:07:44;;;;;;;3.58;3.08;;;;;;;31.96;43.55;94747.97;5091221;28;20694;-45
2023/08/17 07:10:11;;;;;;;9.10;3.42;;;;;;;32.11;42.63;94755.03;5091099;28;20280;-44
2023/08/17 07:12:38;;;;;;;7.35;3.53;;;;;;;32.26;41.95;94754.19;5090520;28;20304;-43
2023/08/17 07:15:06;;;;;;;5.10;3.50;;;;;;;32.45;41.73;94755.19;5091069;28;20194;-44
2023/08/17 07:17:33;;;;;;;6.72;3.17;;;;;;;32.46;41.98;94740.88;5090815;28;20221;-44
2023/08/17 07:20:00;;;;;;;3.83;3.38;;;;;;;32.66;41.12;94750.56;5090883;28;20182;-44
2023/08/17 07:22:27;;;;;;;9.65;4.15;;;;;;;32.84;41.10;94745.66;5090952;28;20216;-45
2023/08/17 07:24:55;;;;;;;5.05;3.50;;;;;;;33.05;40.22;94743.69;5090886;28;20194;-45
2023/08/17 07:27:22;;;;;;;7.07;2.80;;;;;;;32.93;40.10;94744.03;5090564;28;20190;-46
2023/08/17 07:29:49;;;;;;;8.00;3.13;;;;;;;33.10;38.86;94749.72;5090635;28;20193;-44
2023/08/17 07:32:15;;;;;;;3.22;2.60;;;;;;;33.32;36.49;94738.66;5090113;28;20229;-44
2023/08/17 07:34:42;;;;;;;4.30;2.72;;;;;;;33.54;36.09;94735.56;5091277;28;20189;-45
2023/08/17 07:37:09;;;;;;;3.58;2.60;;;;;;;33.71;35.45;94733.25;5090936;28;20186;-45
2023/08/17 07:39:35;;;;;;;7.38;3.10;;;;;;;33.79;35.70;94739.03;5090939;28;20185;-45
2023/08/17 07:42:04;;;;;;;3.35;2.92;;;;;;;33.96;35.11;94750.00;5090259;28;20212;-44
2023/08/17 07:44:33;;;;;;;5.28;2.90;;;;;;;33.95;34.93;94740.44;5090581;28;20665;-44
2023/08/17 07:47:00;;;;;;;2.63;2.40;;;;;;;33.88;34.05;94722.19;5090688;28;20185;-42
2023/08/17 07:49:26;;;;;;;3.17;2.70;;;;;;;33.86;33.81;94734.97;5090212;28;20193;-44
2023/08/17 07:51:53;;;;;;;3.08;2.70;;;;;;;33.92;34.23;94736.47;5090308;28;20705;-45
2023/08/17 07:54:20;;;;;;;5.07;3.10;;;;;;;33.79;34.55;94739.03;5090132;28;20227;-44
2023/08/17 07:56:47;;;;;;;6.45;3.28;;;;;;;33.77;35.22;94728.69;5089940;28;20871;-44
2023/08/17 07:59:15;;;;;;;6.05;3.15;;;;;;;33.74;35.43;94739.09;5089024;28;20178;-44
2023/08/17 08:01:42;;;;;;;3.63;3.28;;;;;;;33.46;36.03;94733.50;5090088;28;20719;-45
2023/08/17 08:04:08;;;;;;;2.78;2.58;;;;;;;33.09;36.96;94734.91;5089675;28;20622;-44
2023/08/17 08:06:35;;;;;;;7.57;3.17;;;;;;;32.94;37.60;94729.72;5090299;28;20247;-46
2023/08/17 08:09:02;;;;;;;6.63;3.42;;;;;;;33.04;37.80;94723.56;5089892;28;20938;-44
2023/08/17 08:11:30;;;;;;;6.47;3.42;;;;;;;33.07;38.03;94720.34;5089988;28;20247;-45
2023/08/17 08:13:57;;;;;;;6.35;2.90;;;;;;;33.01;37.54;94721.44;5089946;28;20225;-44
2023/08/17 08:16:25;;;;;;;3.75;3.10;;;;;;;33.19;37.39;94710.94;5089896;28;20314;-44
2023/08/17 08:18:52;;;;;;;7.63;3.45;;;;;;;33.24;37.14;94726.00;5089572;28;20607;-45
2023/08/17 08:21:19;;;;;;;3.08;2.88;;;;;;;33.27;37.50;94716.72;5089717;28;20855;-45
2023/08/17 08:23:45;;;;;;;5.53;3.20;;;;;;;33.34;37.38;94723.28;5089712;28;20247;-44
2023/08/17 08:26:12;;;;;;;2.97;2.67;;;;;;;33.20;37.68;94725.78;5089253;28;20205;-44
2023/08/17 08:28:39;;;;;;;3.85;3.20;;;;;;;33.21;37.61;94713.34;5089609;28;20197;-44
2023/08/17 08:31:06;;;;;;;6.07;3.50;;;;;;;33.32;37.78;94717.44;5089211;28;20616;-45
2023/08/17 08:33:34;;;;;;;8.15;3.63;;;;;;;33.47;37.77;94708.59;5089779;28;20907;-45
2023/08/17 08:36:01;;;;;;;4.97;3.28;;;;;;;33.49;37.68;94713.59;5089462;28;20185;-43
2023/08/17 08:38:29;;;;;;;6.03;3.67;;;;;;;33.60;37.81;94717.75;5089792;28;20627;-45
2023/08/17 08:40:56;;;;;;;5.25;2.90;;;;;;;33.71;37.47;94713.91;5089161;28;20182;-45
2023/08/17 08:43:22;;;;;;;4.32;3.22;;;;;;;33.68;37.38;94717.91;5089661;28;20677;-44
2023/08/17 08:45:50;;;;;;;5.45;3.17;;;;;;;33.60;37.70;94709.78;5089272;28;20196;-45
2023/08/17 08:48:19;;;;;;;5.05;2.80;;;;;;;33.47;37.86;94727.16;5089363;28;20656;-44
2023/08/17 08:50:49;;;;;;;3.72;3.10;;;;;;;33.35;38.06;94703.63;5089457;28;20189;-44
2023/08/17 08:53:16;;;;;;;6.45;3.05;;;;;;;33.37;37.94;94709.44;5089580;28;20210;-45
2023/08/17 08:55:48;;;;;;;3.22;2.75;;;;;;;33.29;38.22;94703.97;5089477;28;20200;-46
2023/08/17 08:58:17;;;;;;;4.63;3.00;;;;;;;33.31;38.42;94699.97;5089962;28;20196;-45
2023/08/17 09:00:47;;;;;;;6.35;3.75;;;;;;;33.25;38.79;94706.41;5090195;28;20204;-44
2023/08/17 09:03:16;;;;;;;4.82;3.35;;;;;;;33.22;38.72;94704.31;5090151;28;20285;-44
2023/08/17 09:05:48;;;;;;;4.10;2.75;;;;;;;33.17;38.86;94704.34;5089319;28;20665;-44
2023/08/17 09:08:16;;;;;;;5.78;3.35;;;;;;;33.17;38.90;94691.09;5089470;28;20194;-44
2023/08/17 09:10:43;;;;;;;7.55;2.92;;;;;;;33.08;38.70;94682.97;5091378;28;20231;-45
2023/08/17 09:13:11;;;;;;;4.10;3.15;;;;;;;33.14;38.67;94683.69;5093472;28;20595;-45
2023/08/17 09:15:38;;;;;;;3.97;2.65;;;;;;;33.17;38.72;94675.97;5093263;28;20205;-44
2023/08/17 09:18:07;;;;;;;5.95;3.10;;;;;;;33.07;38.59;94677.94;5093189;28;20186;-45
2023/08/17 09:20:38;;;;;;;6.85;3.10;;;;;;;33.10;38.90;94677.38;5093835;28;20601;-44
2023/08/17 09:23:12;;;;;;;7.18;3.25;;;;;;;32.89;39.35;94676.72;5093180;28;20193;-45
2023/08/17 09:25:40;;;;;;;6.20;3.15;;;;;;;32.78;39.27;94662.00;5093433;28;20529;-44
2023/08/17 09:28:12;;;;;;;5.00;3.08;;;;;;;32.82;39.18;94681.59;5093281;28;20185;-45
2023/08/17 09:30:58;;;;;;;6.28;3.35;;;;;;;32.59;39.67;94673.25;5094404;28;20331;-44
2023/08/17 09:33:26;;;;;;;9.75;2.92;;;;;;;32.52;39.60;94669.38;5092939;28;20225;-45
2023/08/17 09:35:54;;;;;;;5.43;3.25;;;;;;;32.35;40.12;94669.72;5092679;28;20209;-43
2023/08/17 09:38:21;;;;;;;7.03;3.13;;;;;;;32.43;39.84;94677.09;5092951;28;20262;-46
2023/08/17 09:40:48;;;;;;;6.35;3.42;;;;;;;32.24;39.96;94666.31;5092862;28;20747;-45
2023/08/17 09:43:15;;;;;;;3.97;2.55;;;;;;;32.18;39.77;94657.63;5092471;28;20181;-45
2023/08/17 09:45:46;;;;;;;4.55;3.03;;;;;;;32.28;39.79;94667.34;5092860;28;20343;-46
2023/08/17 09:48:15;;;;;;;3.72;2.80;;;;;;;32.05;39.52;94660.09;5092632;28;20186;-45
2023/08/17 09:50:43;;;;;;;4.75;3.10;;;;;;;31.95;39.64;94658.28;5093208;28;20499;-44
2023/08/17 09:53:13;;;;;;;4.78;2.72;;;;;;;31.93;39.13;94655.91;5092171;28;20254;-44
2023/08/17 09:55:42;;;;;;;4.55;2.85;;;;;;;31.95;39.45;94652.97;5092640;28;20198;-44
2023/08/17 09:58:09;;;;;;;9.02;3.33;;;;;;;32.13;39.29;94648.94;5092484;28;20209;-44
2023/08/17 10:00:37;;;;;;;4.70;2.70;;;;;;;32.00;38.88;94639.75;5092864;28;20193;-44
2023/08/17 10:03:05;;;;;;;4.55;2.90;;;;;;;32.00;38.87;94647.69;5092304;28;20220;-44
2023/08/17 10:05:37;;;;;;;10.07;2.83;;;;;;;32.00;39.41;94642.41;5092310;28;20189;-44
2023/08/17 10:08:07;;;;;;;2.72;2.42;;;;;;;31.99;38.83;94646.09;5092119;28;20186;-44
2023/08/17 10:10:39;;;;;;;3.50;2.38;;;;;;;31.94;37.88;94636.31;5092335;28;20637;-45
2023/08/17 10:13:10;;;;;;;5.03;2.40;;;;;;;31.93;38.23;94641.91;5092332;28;20224;-45
2023/08/17 10:15:42;;;;;;;6.15;2.78;;;;;;;31.87;38.60;94641.13;5092117;28;20193;-45
2023/08/17 10:18:17;;;;;;;3.15;2.20;;;;;;;31.66;38.35;94640.41;5091938;28;20229;-46
2023/08/17 10:20:52;;;;;;;4.50;2.47;;;;;;;31.65;38.65;94638.84;5092147;28;20186;-44
2023/08/17 10:23:23;;;;;;;8.18;2.50;;;;;;;31.56;38.89;94629.06;5090887;28;20209;-44
2023/08/17 10:25:51;;;;;;;4.40;2.40;;;;;;;31.65;38.86;94622.16;5091984;28;20206;-44
2023/08/17 10:28:20;;;;;;;4.00;2.58;;;;;;;31.79;38.92;94625.03;5091848;28;20198;-44
2023/08/17 10:30:48;;;;;;;2.17;2.08;;;;;;;31.92;38.71;94627.88;5091732;28;20232;-43
2023/08/17 10:33:16;;;;;;;2.60;2.40;;;;;;;32.03;37.88;94627.81;5091563;28;20258;-44
2023/08/17 10:35:44;;;;;;;3.72;2.35;;;;;;;31.86;37.98;94628.16;5091798;28;20546;-45
2023/08/17 10:38:11;;;;;;;4.15;2.80;;;;;;;31.94;37.76;94624.94;5091473;28;20190;-44
2023/08/17 10:40:42;;;;;;;5.10;2.30;;;;;;;31.87;37.69;94616.53;5091705;28;20197;-45
2023/08/17 10:43:09;;;;;;;4.82;2.45;;;;;;;32.00;37.64;94626.53;5091336;28;20605;-44
2023/08/17 10:45:38;;;;;;;3.90;2.58;;;;;;;31.97;37.09;94621.78;5091695;28;20209;-44
2023/08/17 10:48:28;;;;;;;5.40;2.70;;;;;;;31.97;37.41;94616.47;5091315;28;20239;-44
2023/08/17 10:51:06;;;;;;;5.72;2.65;;;;;;;31.84;37.23;94617.09;5091525;28;20193;-44
2023/08/17 10:53:42;;;;;;;3.38;2.40;;;;;;;31.61;37.68;94582.25;5091335;28;20205;-43
2023/08/17 10:56:11;;;;;;;6.10;2.67;;;;;;;31.82;37.59;94612.00;5091620;28;20521;-43
2023/08/17 10:58:38;;;;;;;2.75;2.17;;;;;;;31.96;37.40;94606.97;5091528;28;20194;-43
2023/08/17 11:01:07;;;;;;;3.17;2.75;;;;;;;31.91;37.55;94612.25;5091028;28;20186;-45
2023/08/17 11:03:36;;;;;;;5.30;2.60;;;;;;;31.97;36.88;94598.75;5090836;28;20864;-42
2023/08/17 11:06:16;;;;;;;4.35;2.65;;;;;;;31.90;37.19;94613.34;5091111;28;20724;-46
2023/08/17 11:08:53;;;;;;;3.30;2.40;;;;;;;31.43;37.05;94538.75;5091181;28;20280;-44
2023/08/17 11:11:21;;;;;;;7.10;2.13;;;;;;;31.91;37.23;94605.16;5091190;28;20242;-44
2023/08/17 11:13:48;;;;;;;2.88;2.50;;;;;;;31.88;37.35;94599.59;5091313;28;20223;-45
2023/08/17 11:16:19;;;;;;;5.03;2.88;;;;;;;32.01;37.23;94592.91;5090568;28;20204;-43
2023/08/17 11:18:46;;;;;;;3.25;2.20;;;;;;;32.08;37.26;94594.19;5091041;28;20645;-44
2023/08/17 11:21:14;;;;;;;5.53;2.28;;;;;;;32.15;37.27;94601.81;5092582;28;20213;-44
2023/08/17 11:23:41;;;;;;;2.60;2.40;;;;;;;32.16;37.65;94595.44;5091036;28;20193;-45
2023/08/17 11:26:08;;;;;;;4.35;2.63;;;;;;;32.23;37.83;94590.63;5090870;28;20677;-45
2023/08/17 11:28:38;;;;;;;4.90;2.42;;;;;;;32.21;38.36;94553.06;5090928;28;20186;-44
2023/08/17 11:31:06;;;;;;;2.65;2.40;;;;;;;32.48;38.28;94581.75;5090336;28;20233;-44
2023/08/17 11:33:36;;;;;;;2.85;2.65;;;;;;;32.20;38.33;94557.56;5090660;28;20286;-45
2023/08/17 11:36:05;;;;;;;15.13;3.00;;;;;;;32.24;38.50;94578.97;5090682;28;20195;-44